createdAt,value
2018-03-29T00:00:26.280Z,0
2018-03-29T00:01:06.604Z,0
2018-03-29T00:01:47.141Z,0
2018-03-29T00:02:27.425Z,0
2018-03-29T00:03:07.788Z,0
2018-03-29T00:03:48.148Z,0
2018-03-29T00:06:18.826Z,0
2018-03-29T00:06:57.605Z,0
2018-03-29T00:07:37.830Z,0
2018-03-29T00:08:18.252Z,0
2018-03-29T00:08:58.614Z,0
2018-03-29T00:09:39.021Z,0
2018-03-29T00:10:19.442Z,0
2018-03-29T00:10:59.829Z,0
2018-03-29T00:11:40.308Z,0
2018-03-29T00:12:20.635Z,0
2018-03-29T00:13:01.042Z,0
2018-03-29T00:13:41.452Z,0
2018-03-29T00:14:21.901Z,0
2018-03-29T00:15:02.301Z,0
2018-03-29T00:15:42.696Z,0
2018-03-29T00:16:23.076Z,0
2018-03-29T00:17:03.455Z,0
2018-03-29T00:17:43.879Z,0
2018-03-29T00:18:24.279Z,0
2018-03-29T00:19:04.705Z,0
2018-03-29T00:19:45.098Z,0
2018-03-29T00:20:25.464Z,0
2018-03-29T00:21:05.857Z,0
2018-03-29T00:21:46.285Z,0
2018-03-29T00:22:26.695Z,0
2018-03-29T00:23:07.124Z,0
2018-03-29T00:23:48.357Z,0
2018-03-29T00:24:28.442Z,0
2018-03-29T00:25:08.878Z,0
2018-03-29T00:25:49.288Z,0
2018-03-29T00:28:31.481Z,0
2018-03-29T00:29:09.338Z,0
2018-03-29T00:29:49.717Z,0
2018-03-29T00:30:30.185Z,0
2018-03-29T00:31:10.559Z,0
2018-03-29T00:31:50.960Z,0
2018-03-29T00:32:31.411Z,0
2018-03-29T00:33:11.954Z,0
2018-03-29T00:33:52.178Z,0
2018-03-29T00:34:32.543Z,0
2018-03-29T00:35:12.989Z,0
2018-03-29T00:35:53.394Z,0
2018-03-29T00:36:33.878Z,0
2018-03-29T00:37:14.189Z,0
2018-03-29T00:37:54.607Z,0
2018-03-29T00:38:34.965Z,0
2018-03-29T00:39:15.384Z,0
2018-03-29T00:39:55.769Z,0
2018-03-29T00:40:36.258Z,0
2018-03-29T00:41:16.607Z,0
2018-03-29T00:41:56.992Z,0
2018-03-29T00:42:37.409Z,0
2018-03-29T00:45:09.227Z,0
2018-03-29T00:45:49.346Z,0
2018-03-29T00:46:29.730Z,0
2018-03-29T00:47:10.129Z,0
2018-03-29T00:47:50.660Z,0
2018-03-29T00:48:31.085Z,0
2018-03-29T00:49:11.473Z,0
2018-03-29T00:49:51.865Z,0
2018-03-29T00:50:32.277Z,0
2018-03-29T00:51:12.660Z,0
2018-03-29T00:51:53.091Z,0
2018-03-29T00:52:33.447Z,0
2018-03-29T00:53:13.816Z,0
2018-03-29T00:53:54.257Z,0
2018-03-29T00:54:34.629Z,0
2018-03-29T00:55:15.019Z,0
2018-03-29T00:55:55.409Z,0
2018-03-29T00:56:35.885Z,0
2018-03-29T00:57:16.240Z,0
2018-03-29T00:57:56.652Z,0
2018-03-29T00:58:37.068Z,0
2018-03-29T00:59:17.495Z,0
2018-03-29T00:59:57.867Z,0
2018-03-29T01:00:38.251Z,0
2018-03-29T01:01:18.623Z,0
2018-03-29T01:01:59.047Z,0
2018-03-29T01:02:39.505Z,0
2018-03-29T01:03:19.850Z,0
2018-03-29T01:04:00.256Z,0
2018-03-29T01:04:40.746Z,0
2018-03-29T01:05:21.056Z,0
2018-03-29T01:06:01.457Z,0
2018-03-29T01:06:41.848Z,0
2018-03-29T01:07:22.241Z,0
2018-03-29T01:08:02.636Z,0
2018-03-29T01:08:43.043Z,0
2018-03-29T01:09:23.442Z,0
2018-03-29T01:10:03.882Z,0
2018-03-29T01:10:44.215Z,0
2018-03-29T01:11:24.630Z,0
2018-03-29T01:13:42.300Z,0
2018-03-29T01:14:22.724Z,0
2018-03-29T01:15:03.158Z,0
2018-03-29T01:15:43.533Z,0
2018-03-29T01:16:23.910Z,0
2018-03-29T01:17:04.338Z,0
2018-03-29T01:17:44.747Z,0
2018-03-29T01:18:25.170Z,0
2018-03-29T01:19:05.538Z,0
2018-03-29T01:19:45.941Z,0
2018-03-29T01:20:26.383Z,0
2018-03-29T01:21:06.738Z,0
2018-03-29T01:21:47.191Z,0
2018-03-29T01:22:27.572Z,0
2018-03-29T01:23:07.979Z,0
2018-03-29T01:23:48.376Z,0
2018-03-29T01:24:28.783Z,0
2018-03-29T01:25:09.181Z,0
2018-03-29T01:25:49.592Z,0
2018-03-29T01:26:30.032Z,0
2018-03-29T01:27:10.457Z,0
2018-03-29T01:27:50.839Z,0
2018-03-29T01:28:31.225Z,0
2018-03-29T01:29:11.660Z,0
2018-03-29T01:29:52.056Z,0
2018-03-29T01:30:32.460Z,0
2018-03-29T01:31:12.879Z,0
2018-03-29T01:31:53.264Z,0
2018-03-29T01:32:33.654Z,0
2018-03-29T01:33:14.033Z,0
2018-03-29T01:33:54.470Z,0
2018-03-29T01:34:34.857Z,0
2018-03-29T01:35:15.270Z,0
2018-03-29T01:35:55.716Z,0
2018-03-29T01:36:36.087Z,0
2018-03-29T01:37:16.489Z,0
2018-03-29T01:37:56.859Z,0
2018-03-29T01:38:37.262Z,0
2018-03-29T01:39:17.705Z,0
2018-03-29T01:39:58.077Z,0
2018-03-29T01:40:38.478Z,0
2018-03-29T01:41:18.851Z,0
2018-03-29T01:41:59.254Z,0
2018-03-29T01:42:39.668Z,0
2018-03-29T01:43:20.078Z,0
2018-03-29T01:44:00.481Z,0
2018-03-29T01:44:40.901Z,0
2018-03-29T01:45:21.293Z,0
2018-03-29T01:46:01.758Z,0
2018-03-29T01:46:42.096Z,0
2018-03-29T01:47:22.483Z,0
2018-03-29T01:48:02.897Z,0
2018-03-29T01:48:43.314Z,0
2018-03-29T01:49:23.732Z,0
2018-03-29T01:50:04.155Z,0
2018-03-29T01:50:44.537Z,0
2018-03-29T01:51:25.003Z,0
2018-03-29T01:52:05.357Z,0
2018-03-29T01:54:46.481Z,0
2018-03-29T01:55:25.516Z,0
2018-03-29T01:56:05.930Z,0
2018-03-29T01:56:46.305Z,0
2018-03-29T01:57:26.754Z,0
2018-03-29T01:58:07.133Z,0
2018-03-29T01:58:47.564Z,0
2018-03-29T01:59:27.961Z,0
2018-03-29T02:00:08.372Z,0
2018-03-29T02:00:48.787Z,0
2018-03-29T02:01:29.145Z,0
2018-03-29T02:02:09.601Z,0
2018-03-29T02:02:49.948Z,0
2018-03-29T02:03:30.366Z,0
2018-03-29T02:04:10.783Z,0
2018-03-29T02:04:51.183Z,0
2018-03-29T02:05:31.585Z,0
2018-03-29T02:06:12.011Z,0
2018-03-29T02:06:52.404Z,0
2018-03-29T02:07:32.847Z,0
2018-03-29T02:08:13.275Z,0
2018-03-29T02:08:53.722Z,0
2018-03-29T02:09:34.082Z,0
2018-03-29T02:10:14.494Z,0
2018-03-29T02:10:54.898Z,0
2018-03-29T02:13:09.633Z,0
2018-03-29T02:13:49.151Z,0
2018-03-29T02:14:29.569Z,0
2018-03-29T02:15:09.993Z,0
2018-03-29T02:17:38.443Z,0
2018-03-29T02:18:18.679Z,0
2018-03-29T02:18:59.255Z,0
2018-03-29T02:19:39.675Z,0
2018-03-29T02:20:20.076Z,0
2018-03-29T02:22:39.069Z,0
2018-03-29T02:23:19.499Z,0
2018-03-29T02:23:59.924Z,0
2018-03-29T02:24:40.352Z,0
2018-03-29T02:25:20.780Z,0
2018-03-29T02:26:01.204Z,0
2018-03-29T02:26:41.609Z,0
2018-03-29T02:27:22.037Z,0
2018-03-29T02:28:02.415Z,0
2018-03-29T02:28:42.858Z,0
2018-03-29T02:29:23.216Z,0
2018-03-29T02:30:03.620Z,0
2018-03-29T02:30:44.048Z,0
2018-03-29T02:31:24.526Z,0
2018-03-29T02:32:04.913Z,0
2018-03-29T02:32:45.304Z,0
2018-03-29T02:33:25.699Z,0
2018-03-29T02:34:06.060Z,0
2018-03-29T02:34:46.452Z,0
2018-03-29T02:35:26.846Z,0
2018-03-29T02:36:07.292Z,0
2018-03-29T02:36:47.656Z,0
2018-03-29T02:37:28.948Z,0
2018-03-29T02:38:09.346Z,0
2018-03-29T02:38:49.847Z,0
2018-03-29T02:39:30.239Z,0
2018-03-29T02:40:10.609Z,0
2018-03-29T02:40:51.036Z,0
2018-03-29T02:41:31.441Z,0
2018-03-29T02:42:11.858Z,0
2018-03-29T02:42:52.265Z,0
2018-03-29T02:43:32.714Z,0
2018-03-29T02:44:13.133Z,0
2018-03-29T02:44:53.657Z,0
2018-03-29T02:45:34.071Z,0
2018-03-29T02:46:14.474Z,0
2018-03-29T02:46:54.946Z,0
2018-03-29T02:47:35.291Z,0
2018-03-29T02:48:15.713Z,0
2018-03-29T02:48:56.121Z,0
2018-03-29T02:49:36.536Z,0
2018-03-29T02:50:16.937Z,0
2018-03-29T02:50:57.359Z,0
2018-03-29T02:51:37.737Z,0
2018-03-29T02:52:18.131Z,0
2018-03-29T02:52:58.535Z,0
2018-03-29T02:53:38.910Z,0
2018-03-29T02:55:57.370Z,0
2018-03-29T02:56:37.779Z,0
2018-03-29T02:57:18.167Z,0
2018-03-29T02:57:58.605Z,0
2018-03-29T02:58:38.980Z,0
2018-03-29T02:59:19.403Z,0
2018-03-29T02:59:59.801Z,0
2018-03-29T03:00:40.213Z,0
2018-03-29T03:01:20.656Z,0
2018-03-29T03:02:01.022Z,0
2018-03-29T03:02:41.424Z,0
2018-03-29T03:03:21.831Z,0
2018-03-29T03:04:02.252Z,0
2018-03-29T03:04:42.654Z,0
2018-03-29T03:05:23.051Z,0
2018-03-29T03:06:03.457Z,0
2018-03-29T03:06:43.854Z,0
2018-03-29T03:07:24.290Z,0
2018-03-29T03:08:04.686Z,0
2018-03-29T03:08:45.103Z,0
2018-03-29T03:09:25.490Z,0
2018-03-29T03:10:05.884Z,0
2018-03-29T03:10:46.297Z,0
2018-03-29T03:11:26.691Z,0
2018-03-29T03:12:07.111Z,0
2018-03-29T03:12:47.746Z,0
2018-03-29T03:13:28.077Z,0
2018-03-29T03:14:08.443Z,0
2018-03-29T03:14:48.841Z,0
2018-03-29T03:15:29.273Z,0
2018-03-29T03:16:09.698Z,0
2018-03-29T03:16:50.138Z,0
2018-03-29T03:17:30.544Z,0
2018-03-29T03:18:10.961Z,0
2018-03-29T03:18:51.356Z,0
2018-03-29T03:19:31.734Z,0
2018-03-29T03:20:12.167Z,0
2018-03-29T03:20:52.540Z,0
2018-03-29T03:21:32.946Z,0
2018-03-29T03:22:13.371Z,0
2018-03-29T03:22:53.831Z,0
2018-03-29T03:23:34.207Z,0
2018-03-29T03:24:14.615Z,0
2018-03-29T03:24:55.076Z,0
2018-03-29T03:25:35.406Z,0
2018-03-29T03:26:15.840Z,0
2018-03-29T03:26:56.253Z,0
2018-03-29T03:27:36.680Z,0
2018-03-29T03:28:17.012Z,0
2018-03-29T03:28:57.422Z,0
2018-03-29T03:29:37.790Z,0
2018-03-29T03:30:18.185Z,0
2018-03-29T03:30:58.577Z,0
2018-03-29T03:31:38.972Z,0
2018-03-29T03:32:19.340Z,0
2018-03-29T03:32:59.778Z,0
2018-03-29T03:33:40.149Z,0
2018-03-29T03:34:21.101Z,0
2018-03-29T03:35:01.352Z,0
2018-03-29T03:35:41.771Z,0
2018-03-29T03:36:22.169Z,0
2018-03-29T03:37:02.612Z,0
2018-03-29T03:37:42.993Z,0
2018-03-29T03:38:23.384Z,0
2018-03-29T03:39:03.806Z,0
2018-03-29T03:39:44.182Z,0
2018-03-29T03:40:24.607Z,0
2018-03-29T03:41:04.985Z,0
2018-03-29T03:41:45.372Z,0
2018-03-29T03:42:25.766Z,0
2018-03-29T03:43:06.142Z,0
2018-03-29T03:43:46.528Z,0
2018-03-29T03:44:26.912Z,0
2018-03-29T03:45:07.295Z,0
2018-03-29T03:45:47.690Z,0
2018-03-29T03:46:28.095Z,0
2018-03-29T03:47:08.484Z,0
2018-03-29T03:47:48.893Z,0
2018-03-29T03:48:29.294Z,0
2018-03-29T03:49:09.701Z,0
2018-03-29T03:49:50.063Z,0
2018-03-29T03:50:30.440Z,0
2018-03-29T03:51:10.859Z,0
2018-03-29T03:51:51.320Z,0
2018-03-29T03:52:31.675Z,0
2018-03-29T03:53:12.098Z,0
2018-03-29T03:53:52.450Z,0
2018-03-29T03:56:04.920Z,0
2018-03-29T03:56:45.342Z,0
2018-03-29T03:57:25.756Z,0
2018-03-29T03:58:06.173Z,0
2018-03-29T03:58:46.602Z,0
2018-03-29T03:59:27.009Z,0
2018-03-29T04:00:07.424Z,0
2018-03-29T04:00:47.856Z,0
2018-03-29T04:01:28.270Z,0
2018-03-29T04:02:08.690Z,0
2018-03-29T04:02:49.088Z,0
2018-03-29T04:03:29.495Z,0
2018-03-29T04:04:09.920Z,0
2018-03-29T04:04:50.341Z,0
2018-03-29T04:05:30.766Z,0
2018-03-29T04:06:11.221Z,0
2018-03-29T04:44:25.092Z,0
2018-03-29T04:45:05.483Z,0
2018-03-29T04:45:45.909Z,0
2018-03-29T04:46:26.335Z,0
2018-03-29T04:47:06.736Z,0
2018-03-29T04:47:47.156Z,0
2018-03-29T04:48:27.544Z,0
2018-03-29T04:49:07.976Z,0
2018-03-29T04:49:48.368Z,0
2018-03-29T04:50:28.756Z,0
2018-03-29T04:51:09.152Z,0
2018-03-29T04:51:49.631Z,0
2018-03-29T04:52:29.987Z,0
2018-03-29T04:53:10.415Z,0
2018-03-29T04:53:50.844Z,0
2018-03-29T04:54:31.271Z,0
2018-03-29T04:55:11.685Z,0
2018-03-29T04:55:52.080Z,0
2018-03-29T04:56:32.476Z,0
2018-03-29T04:57:12.874Z,0
2018-03-29T04:57:53.300Z,0
2018-03-29T04:58:33.708Z,0
2018-03-29T04:59:14.123Z,0
2018-03-29T04:59:54.498Z,0
2018-03-29T05:00:34.915Z,0
2018-03-29T05:01:15.330Z,0
2018-03-29T05:01:55.755Z,0
2018-03-29T05:02:36.171Z,0
2018-03-29T05:03:16.590Z,0
2018-03-29T05:03:56.997Z,0
2018-03-29T05:04:37.423Z,0
2018-03-29T05:05:17.837Z,0
2018-03-29T05:05:58.251Z,0
2018-03-29T05:06:38.668Z,0
2018-03-29T05:07:19.095Z,0
2018-03-29T05:07:59.518Z,0
2018-03-29T05:08:39.948Z,0
2018-03-29T05:09:20.374Z,0
2018-03-29T05:10:00.803Z,0
2018-03-29T05:10:41.218Z,0
2018-03-29T05:11:21.644Z,0
2018-03-29T05:12:02.029Z,0
2018-03-29T05:12:42.446Z,0
2018-03-29T05:13:22.852Z,0
2018-03-29T05:14:03.286Z,0
2018-03-29T05:14:43.711Z,0
2018-03-29T05:15:24.147Z,0
2018-03-29T05:16:04.565Z,0
2018-03-29T05:16:45.001Z,0
2018-03-29T05:17:25.424Z,0
2018-03-29T05:18:05.849Z,0
2018-03-29T05:18:46.271Z,0
2018-03-29T05:19:26.684Z,0
2018-03-29T05:20:07.115Z,0
2018-03-29T05:20:47.534Z,0
2018-03-29T05:21:27.936Z,0
2018-03-29T05:22:08.362Z,0
2018-03-29T05:22:48.761Z,0
2018-03-29T05:23:29.184Z,0
2018-03-29T05:24:09.608Z,0
2018-03-29T05:24:50.235Z,0
2018-03-29T05:25:30.579Z,0
2018-03-29T05:26:10.976Z,0
2018-03-29T05:26:51.408Z,0
2018-03-29T05:27:31.816Z,0
2018-03-29T05:28:12.265Z,0
2018-03-29T05:28:52.662Z,0
2018-03-29T05:29:33.127Z,0
2018-03-29T05:30:13.549Z,0
2018-03-29T05:30:53.985Z,0
2018-03-29T05:31:34.402Z,0
2018-03-29T05:32:14.831Z,0
2018-03-29T05:32:55.249Z,0
2018-03-29T05:33:35.681Z,0
2018-03-29T05:34:16.101Z,0
2018-03-29T05:34:56.521Z,0
2018-03-29T05:35:36.945Z,0
2018-03-29T05:36:17.373Z,0
2018-03-29T05:36:57.785Z,0
2018-03-29T05:37:38.227Z,0
2018-03-29T05:38:18.654Z,0
2018-03-29T05:38:59.089Z,0
2018-03-29T05:39:39.505Z,5
2018-03-29T05:40:19.942Z,5
2018-03-29T05:41:00.340Z,5
2018-03-29T05:41:40.763Z,5
2018-03-29T05:42:21.175Z,5
2018-03-29T05:43:01.608Z,5
2018-03-29T05:43:42.018Z,5
2018-03-29T05:44:22.461Z,5
2018-03-29T05:45:02.882Z,5
2018-03-29T05:45:43.383Z,5
2018-03-29T05:46:23.739Z,5
2018-03-29T05:47:04.140Z,5
2018-03-29T05:47:44.568Z,5
2018-03-29T05:48:25.075Z,5
2018-03-29T05:49:05.503Z,5
2018-03-29T05:49:45.923Z,5
2018-03-29T05:50:26.343Z,5
2018-03-29T05:51:06.777Z,5
2018-03-29T05:51:47.172Z,5
2018-03-29T05:52:27.645Z,5
2018-03-29T05:53:08.038Z,5
2018-03-29T05:53:48.472Z,5
2018-03-29T05:54:28.863Z,5
2018-03-29T05:55:09.301Z,5
2018-03-29T05:55:49.694Z,5
2018-03-29T05:56:30.085Z,5
2018-03-29T05:57:10.515Z,5
2018-03-29T05:57:50.929Z,5
2018-03-29T05:58:31.309Z,5
2018-03-29T05:59:11.737Z,5
2018-03-29T05:59:52.133Z,5
2018-03-29T06:00:32.518Z,5
2018-03-29T06:01:12.940Z,5
2018-03-29T06:01:53.351Z,10
2018-03-29T06:02:33.761Z,10
2018-03-29T06:03:14.224Z,10
2018-03-29T06:03:54.626Z,10
2018-03-29T06:04:35.020Z,10
2018-03-29T06:05:15.488Z,10
2018-03-29T06:05:55.908Z,10
2018-03-29T06:06:36.326Z,10
2018-03-29T06:07:16.791Z,10
2018-03-29T06:07:57.180Z,10
2018-03-29T06:08:37.603Z,10
2018-03-29T06:09:18.700Z,15
2018-03-29T06:09:59.117Z,15
2018-03-29T06:10:39.542Z,15
2018-03-29T06:11:19.956Z,15
2018-03-29T06:12:00.369Z,15
2018-03-29T06:12:40.818Z,15
2018-03-29T06:13:21.248Z,15
2018-03-29T06:14:01.672Z,15
2018-03-29T06:14:42.089Z,15
2018-03-29T06:15:22.475Z,15
2018-03-29T06:16:02.895Z,10
2018-03-29T06:16:43.324Z,10
2018-03-29T06:17:23.743Z,10
2018-03-29T06:18:04.160Z,10
2018-03-29T06:18:44.615Z,10
2018-03-29T06:19:25.059Z,10
2018-03-29T06:20:05.436Z,10
2018-03-29T06:20:45.848Z,10
2018-03-29T06:21:26.275Z,10
2018-03-29T06:22:06.720Z,10
2018-03-29T06:22:47.138Z,10
2018-03-29T06:23:27.492Z,10
2018-03-29T06:24:07.884Z,10
2018-03-29T06:24:48.263Z,10
2018-03-29T06:25:28.714Z,10
2018-03-29T06:26:09.085Z,10
2018-03-29T06:26:49.472Z,10
2018-03-29T06:27:29.856Z,10
2018-03-29T06:28:10.268Z,10
2018-03-29T06:28:50.691Z,10
2018-03-29T06:29:31.128Z,10
2018-03-29T06:30:11.642Z,10
2018-03-29T06:30:52.028Z,10
2018-03-29T06:31:32.415Z,10
2018-03-29T06:32:12.805Z,10
2018-03-29T06:32:53.220Z,10
2018-03-29T06:33:33.652Z,10
2018-03-29T06:34:14.068Z,10
2018-03-29T06:34:54.489Z,10
2018-03-29T06:35:34.896Z,10
2018-03-29T06:36:15.332Z,10
2018-03-29T06:36:55.734Z,10
2018-03-29T06:37:36.152Z,10
2018-03-29T06:38:16.538Z,10
2018-03-29T06:38:56.955Z,15
2018-03-29T06:39:37.353Z,15
2018-03-29T06:40:17.749Z,15
2018-03-29T06:40:58.149Z,15
2018-03-29T06:41:38.537Z,20
2018-03-29T06:42:18.927Z,20
2018-03-29T06:42:59.301Z,20
2018-03-29T06:43:40.666Z,15
2018-03-29T06:44:20.985Z,15
2018-03-29T06:45:01.455Z,15
2018-03-29T06:45:42.194Z,15
2018-03-29T06:46:22.689Z,15
2018-03-29T06:47:03.137Z,15
2018-03-29T06:47:43.578Z,10
2018-03-29T06:48:24.011Z,10
2018-03-29T06:49:04.504Z,10
2018-03-29T06:49:44.943Z,10
2018-03-29T06:50:25.330Z,10
2018-03-29T06:51:05.801Z,10
2018-03-29T06:51:46.306Z,10
2018-03-29T06:52:26.800Z,10
2018-03-29T06:53:07.275Z,10
2018-03-29T06:53:47.748Z,10
2018-03-29T06:54:28.225Z,10
2018-03-29T06:55:08.650Z,10
2018-03-29T06:55:49.345Z,10
2018-03-29T06:56:29.780Z,10
2018-03-29T06:57:11.153Z,10
2018-03-29T06:57:50.763Z,10
2018-03-29T06:58:31.166Z,10
2018-03-29T06:59:11.703Z,10
2018-03-29T06:59:52.129Z,10
2018-03-29T07:00:32.540Z,10
2018-03-29T07:01:12.967Z,10
2018-03-29T07:01:53.393Z,10
2018-03-29T07:02:33.830Z,10
2018-03-29T07:03:14.252Z,10
2018-03-29T07:03:54.675Z,10
2018-03-29T07:04:35.090Z,10
2018-03-29T07:05:15.497Z,10
2018-03-29T07:05:55.907Z,15
2018-03-29T07:06:36.317Z,15
2018-03-29T07:07:16.950Z,15
2018-03-29T07:07:57.383Z,15
2018-03-29T07:08:38.685Z,15
2018-03-29T07:09:18.217Z,15
2018-03-29T07:09:58.648Z,15
2018-03-29T07:10:39.048Z,15
2018-03-29T07:11:19.446Z,15
2018-03-29T07:11:59.809Z,15
2018-03-29T07:14:12.403Z,15
2018-03-29T07:14:52.973Z,15
2018-03-29T07:15:33.372Z,15
2018-03-29T07:16:13.813Z,10
2018-03-29T07:16:54.192Z,10
2018-03-29T07:17:34.625Z,10
2018-03-29T07:18:15.006Z,15
2018-03-29T07:18:55.443Z,15
2018-03-29T07:19:35.835Z,10
2018-03-29T07:22:08.631Z,10
2018-03-29T07:22:49.056Z,10
2018-03-29T07:23:29.481Z,10
2018-03-29T07:24:10.115Z,10
2018-03-29T07:24:50.569Z,10
2018-03-29T07:25:30.939Z,10
2018-03-29T07:26:11.359Z,10
2018-03-29T07:26:51.783Z,10
2018-03-29T07:27:32.191Z,10
2018-03-29T07:28:12.608Z,10
2018-03-29T07:28:53.018Z,10
2018-03-29T07:29:33.466Z,10
2018-03-29T07:30:14.576Z,10
2018-03-29T07:30:54.465Z,10
2018-03-29T07:31:34.883Z,10
2018-03-29T07:32:15.790Z,10
2018-03-29T07:32:56.215Z,10
2018-03-29T07:33:36.621Z,10
2018-03-29T07:34:17.066Z,10
2018-03-29T07:34:57.487Z,10
2018-03-29T07:35:37.882Z,10
2018-03-29T07:36:18.312Z,10
2018-03-29T07:36:58.732Z,10
2018-03-29T07:37:39.158Z,10
2018-03-29T07:38:19.543Z,10
2018-03-29T07:38:59.925Z,10
2018-03-29T07:39:40.306Z,10
2018-03-29T07:42:09.000Z,5
2018-03-29T07:42:49.399Z,5
2018-03-29T07:43:29.802Z,5
2018-03-29T07:44:10.215Z,5
2018-03-29T07:44:50.618Z,5
2018-03-29T07:45:31.024Z,5
2018-03-29T07:46:11.439Z,10
2018-03-29T07:46:51.820Z,10
2018-03-29T07:47:33.030Z,10
2018-03-29T07:48:12.849Z,10
2018-03-29T07:48:53.274Z,10
2018-03-29T07:49:34.617Z,10
2018-03-29T07:50:15.182Z,10
2018-03-29T07:50:55.587Z,10
2018-03-29T07:51:36.027Z,10
2018-03-29T07:52:16.465Z,10
2018-03-29T07:52:57.009Z,10
2018-03-29T07:53:37.460Z,10
2018-03-29T07:54:17.901Z,10
2018-03-29T07:54:58.274Z,10
2018-03-29T07:55:38.689Z,10
2018-03-29T07:56:19.093Z,15
2018-03-29T07:56:59.479Z,15
2018-03-29T07:57:40.076Z,15
2018-03-29T07:58:20.543Z,15
2018-03-29T07:59:00.953Z,15
2018-03-29T07:59:41.382Z,15
2018-03-29T08:00:21.828Z,15
2018-03-29T08:01:03.048Z,15
2018-03-29T08:01:42.790Z,10
2018-03-29T08:02:23.218Z,10
2018-03-29T08:03:03.613Z,10
2018-03-29T08:03:44.045Z,10
2018-03-29T08:04:24.461Z,10
2018-03-29T08:05:04.889Z,10
2018-03-29T08:05:45.306Z,10
2018-03-29T08:06:25.708Z,10
2018-03-29T08:07:07.672Z,10
2018-03-29T08:07:48.148Z,15
2018-03-29T08:08:28.510Z,15
2018-03-29T08:09:09.051Z,15
2018-03-29T08:09:49.416Z,15
2018-03-29T08:10:29.813Z,15
2018-03-29T08:11:10.261Z,15
2018-03-29T08:11:50.695Z,15
2018-03-29T08:12:31.138Z,15
2018-03-29T08:13:11.543Z,10
2018-03-29T08:13:52.048Z,10
2018-03-29T08:14:32.393Z,10
2018-03-29T08:15:12.823Z,10
2018-03-29T08:15:53.234Z,10
2018-03-29T08:16:33.671Z,10
2018-03-29T08:17:14.086Z,10
2018-03-29T08:17:54.474Z,10
2018-03-29T08:18:34.869Z,10
2018-03-29T08:19:15.304Z,10
2018-03-29T08:19:57.061Z,10
2018-03-29T08:20:37.473Z,10
2018-03-29T08:21:17.874Z,10
2018-03-29T08:21:58.267Z,10
2018-03-29T08:22:38.699Z,10
2018-03-29T08:23:19.824Z,10
2018-03-29T08:24:01.100Z,10
2018-03-29T08:24:41.467Z,10
2018-03-29T08:25:21.893Z,10
2018-03-29T08:26:02.275Z,10
2018-03-29T08:26:42.687Z,10
2018-03-29T08:27:23.124Z,10
2018-03-29T08:28:04.109Z,10
2018-03-29T08:30:47.849Z,10
2018-03-29T08:33:19.208Z,10
2018-03-29T08:33:59.784Z,10
2018-03-29T08:34:40.269Z,10
2018-03-29T08:35:20.572Z,10
2018-03-29T08:36:00.966Z,15
2018-03-29T08:36:41.833Z,15
2018-03-29T08:37:22.221Z,15
2018-03-29T08:38:02.723Z,15
2018-03-29T08:38:43.755Z,15
2018-03-29T08:39:25.174Z,15
2018-03-29T08:40:04.618Z,15
2018-03-29T08:40:45.042Z,20
2018-03-29T08:41:25.422Z,20
2018-03-29T08:42:07.166Z,20
2018-03-29T08:42:46.387Z,20
2018-03-29T08:43:26.824Z,20
2018-03-29T08:47:35.177Z,20
2018-03-29T08:48:15.703Z,20
2018-03-29T08:48:56.503Z,20
2018-03-29T08:49:36.954Z,20
2018-03-29T08:50:17.333Z,20
2018-03-29T08:50:57.932Z,25
2018-03-29T08:51:38.298Z,25
2018-03-29T08:52:18.711Z,20
2018-03-29T08:52:59.470Z,20
2018-03-29T08:53:40.060Z,20
2018-03-29T08:54:22.624Z,20
2018-03-29T08:55:02.575Z,20
2018-03-29T08:55:43.411Z,20
2018-03-29T08:56:23.802Z,20
2018-03-29T08:57:04.236Z,20
2018-03-29T08:57:44.656Z,20
2018-03-29T08:58:25.126Z,20
2018-03-29T08:59:06.506Z,20
2018-03-29T08:59:48.066Z,20
2018-03-29T09:00:28.570Z,15
2018-03-29T09:01:08.954Z,15
2018-03-29T09:01:49.454Z,20
2018-03-29T09:02:30.907Z,25
2018-03-29T09:03:10.880Z,30
2018-03-29T09:03:51.290Z,35
2018-03-29T09:04:31.781Z,35
2018-03-29T09:05:12.134Z,35
2018-03-29T09:05:55.447Z,35
2018-03-29T09:06:34.942Z,40
2018-03-29T09:07:15.575Z,35
2018-03-29T09:07:56.518Z,35
2018-03-29T09:08:37.702Z,35
2018-03-29T09:09:18.920Z,40
2018-03-29T09:09:59.315Z,40
2018-03-29T09:10:40.779Z,45
2018-03-29T09:11:20.981Z,45
2018-03-29T09:12:01.491Z,45
2018-03-29T09:12:42.055Z,50
2018-03-29T09:13:22.489Z,55
2018-03-29T09:16:01.075Z,65
2018-03-29T09:16:43.111Z,65
2018-03-29T09:17:23.553Z,70
2018-03-29T09:18:04.021Z,65
2018-03-29T09:18:45.063Z,75
2018-03-29T09:19:26.371Z,65
2018-03-29T09:20:06.820Z,65
2018-03-29T09:20:47.299Z,70
2018-03-29T09:21:27.677Z,70
2018-03-29T09:22:08.334Z,75
2018-03-29T09:22:49.764Z,80
2018-03-29T09:23:30.204Z,80
2018-03-29T09:24:12.819Z,80
2018-03-29T09:26:35.738Z,65
2018-03-29T09:27:17.230Z,65
2018-03-29T09:27:57.580Z,65
2018-03-29T09:28:38.373Z,75
2018-03-29T09:29:19.079Z,70
2018-03-29T09:29:59.836Z,70
2018-03-29T09:30:40.403Z,75
2018-03-29T09:31:20.827Z,75
2018-03-29T09:32:01.280Z,75
2018-03-29T09:32:41.915Z,65
2018-03-29T09:33:22.183Z,65
2018-03-29T09:34:02.578Z,65
2018-03-29T09:34:44.140Z,65
2018-03-29T09:37:18.031Z,85
2018-03-29T09:37:58.574Z,90
2018-03-29T09:38:38.885Z,70
2018-03-29T09:39:19.556Z,95
2018-03-29T09:39:59.971Z,90
2018-03-29T09:40:40.424Z,95
2018-03-29T09:41:21.609Z,90
2018-03-29T09:42:02.180Z,90
2018-03-29T09:42:42.450Z,90
2018-03-29T09:43:23.549Z,90
2018-03-29T09:44:03.927Z,90
2018-03-29T09:44:44.421Z,80
2018-03-29T09:45:24.842Z,85
2018-03-29T09:46:05.313Z,95
2018-03-29T09:46:45.740Z,95
2018-03-29T09:49:57.748Z,105
2018-03-29T09:50:38.172Z,105
2018-03-29T09:51:18.631Z,110
2018-03-29T09:51:58.989Z,100
2018-03-29T09:52:39.409Z,85
2018-03-29T09:53:20.377Z,85
2018-03-29T09:54:00.716Z,80
2018-03-29T09:54:41.466Z,80
2018-03-29T09:55:21.815Z,95
2018-03-29T09:56:02.567Z,100
2018-03-29T09:56:42.973Z,110
2018-03-29T09:57:23.264Z,85
2018-03-29T09:58:03.694Z,105
2018-03-29T09:58:44.087Z,105
2018-03-29T09:59:24.573Z,95
2018-03-29T10:00:05.694Z,80
2018-03-29T10:00:46.521Z,85
2018-03-29T10:01:27.891Z,85
2018-03-29T10:02:08.219Z,80
2018-03-29T10:02:48.955Z,80
2018-03-29T10:03:29.322Z,75
2018-03-29T10:04:09.770Z,70
2018-03-29T10:04:50.135Z,70
2018-03-29T10:05:30.618Z,85
2018-03-29T10:06:11.110Z,70
2018-03-29T10:06:52.564Z,70
2018-03-29T10:45:09.579Z,60
2018-03-29T10:45:51.000Z,60
2018-03-29T10:46:33.523Z,65
2018-03-29T10:47:14.225Z,50
2018-03-29T10:47:55.196Z,60
2018-03-29T10:48:36.169Z,50
2018-03-29T10:49:54.265Z,70
2018-03-29T10:50:36.895Z,75
2018-03-29T10:51:18.825Z,75
2018-03-29T10:52:00.248Z,75
2018-03-29T10:52:41.931Z,75
2018-03-29T10:55:01.050Z,70
2018-03-29T10:55:41.458Z,70
2018-03-29T10:56:21.926Z,75
2018-03-29T10:57:02.719Z,75
2018-03-29T10:57:43.376Z,75
2018-03-29T10:58:24.034Z,75
2018-03-29T10:59:04.544Z,75
2018-03-29T10:59:44.924Z,75
2018-03-29T11:00:25.322Z,75
2018-03-29T11:01:06.106Z,80
2018-03-29T11:01:46.586Z,80
2018-03-29T11:02:27.680Z,55
2018-03-29T11:03:08.046Z,50
2018-03-29T11:03:48.501Z,50
2018-03-29T11:04:29.134Z,50
2018-03-29T11:05:12.252Z,45
2018-03-29T11:05:52.980Z,45
2018-03-29T11:06:33.475Z,45
2018-03-29T11:07:13.863Z,65
2018-03-29T11:07:54.377Z,75
2018-03-29T11:08:34.810Z,75
2018-03-29T11:09:15.404Z,75
2018-03-29T11:09:55.809Z,75
2018-03-29T11:10:36.246Z,80
2018-03-29T11:11:17.020Z,70
2018-03-29T11:11:57.999Z,50
2018-03-29T11:12:38.429Z,50
2018-03-29T11:13:19.211Z,55
2018-03-29T11:14:00.105Z,55
2018-03-29T11:14:40.622Z,65
2018-03-29T11:15:22.930Z,55
2018-03-29T11:16:02.589Z,55
2018-03-29T11:16:43.238Z,65
2018-03-29T11:17:24.574Z,60
2018-03-29T11:18:04.662Z,60
2018-03-29T11:18:46.091Z,70
2018-03-29T11:19:26.578Z,60
2018-03-29T11:20:07.298Z,55
2018-03-29T11:20:47.712Z,60
2018-03-29T11:21:28.238Z,65
2018-03-29T11:22:08.842Z,65
2018-03-29T11:22:50.562Z,65
2018-03-29T11:23:31.006Z,65
2018-03-29T11:24:11.426Z,65
2018-03-29T11:24:51.997Z,70
2018-03-29T11:25:32.429Z,85
2018-03-29T11:26:12.925Z,80
2018-03-29T11:26:53.314Z,80
2018-03-29T11:27:34.306Z,75
2018-03-29T11:28:14.867Z,75
2018-03-29T11:28:55.463Z,75
2018-03-29T11:29:36.048Z,75
2018-03-29T11:30:16.489Z,75
2018-03-29T11:30:57.305Z,75
2018-03-29T11:31:37.702Z,75
2018-03-29T11:32:18.369Z,70
2018-03-29T11:32:58.821Z,70
2018-03-29T11:33:39.202Z,70
2018-03-29T11:34:21.543Z,75
2018-03-29T11:35:02.247Z,75
2018-03-29T11:35:42.868Z,75
2018-03-29T11:36:23.369Z,45
2018-03-29T11:37:03.766Z,50
2018-03-29T11:37:44.523Z,75
2018-03-29T11:38:25.005Z,75
2018-03-29T11:39:06.769Z,55
2018-03-29T11:39:47.727Z,75
2018-03-29T11:40:28.512Z,55
2018-03-29T11:41:09.087Z,50
2018-03-29T11:41:49.561Z,50
2018-03-29T11:42:30.362Z,75
2018-03-29T11:43:10.727Z,55
2018-03-29T11:43:51.029Z,70